sensor_id;sensor_type;location;lat;lon;timestamp;pressure;altitude;pressure_sealevel;temperature;humidity
81151;BME280;70629;-26.026;27.976;2023-10-31T00:00:37;86596.91;;;16.04;45.25
81151;BME280;70629;-26.026;27.976;2023-10-31T00:01:17;86602.38;;;15.62;45.83
81151;BME280;70629;-26.026;27.976;2023-10-31T00:01:58;86600.06;;;16.18;45.11
81151;BME280;70629;-26.026;27.976;2023-10-31T00:02:38;86610.16;;;15.94;45.50
81151;BME280;70629;-26.026;27.976;2023-10-31T00:03:18;86606.66;;;15.69;46.08
81151;BME280;70629;-26.026;27.976;2023-10-31T00:03:58;86608.00;;;16.12;46.08
81151;BME280;70629;-26.026;27.976;2023-10-31T00:04:39;86608.19;;;16.18;45.13
81151;BME280;70629;-26.026;27.976;2023-10-31T00:05:18;86606.81;;;16.17;44.67
81151;BME280;70629;-26.026;27.976;2023-10-31T00:06:00;86614.47;;;16.01;45.08
81151;BME280;70629;-26.026;27.976;2023-10-31T00:06:40;86612.69;;;15.68;46.04
81151;BME280;70629;-26.026;27.976;2023-10-31T00:07:21;86618.28;;;16.15;45.20
81151;BME280;70629;-26.026;27.976;2023-10-31T00:08:00;86613.47;;;16.57;44.57
81151;BME280;70629;-26.026;27.976;2023-10-31T00:08:40;86613.50;;;16.14;45.44
81151;BME280;70629;-26.026;27.976;2023-10-31T00:09:20;86618.53;;;16.91;43.76
81151;BME280;70629;-26.026;27.976;2023-10-31T00:10:01;86614.50;;;16.92;43.56
81151;BME280;70629;-26.026;27.976;2023-10-31T00:10:41;86607.47;;;16.39;44.43
81151;BME280;70629;-26.026;27.976;2023-10-31T00:11:23;86607.25;;;16.31;44.99
81151;BME280;70629;-26.026;27.976;2023-10-31T00:12:04;86607.88;;;16.08;45.61
81151;BME280;70629;-26.026;27.976;2023-10-31T00:12:44;86599.81;;;17.01;43.80
81151;BME280;70629;-26.026;27.976;2023-10-31T00:13:24;86609.16;;;17.20;43.69
81151;BME280;70629;-26.026;27.976;2023-10-31T00:14:04;86610.50;;;16.49;44.81
81151;BME280;70629;-26.026;27.976;2023-10-31T00:15:03;86607.91;;;16.99;44.08
81151;BME280;70629;-26.026;27.976;2023-10-31T00:15:44;86621.44;;;17.21;43.55
81151;BME280;70629;-26.026;27.976;2023-10-31T00:16:24;86619.63;;;16.58;43.90
81151;BME280;70629;-26.026;27.976;2023-10-31T00:17:03;86620.50;;;16.43;44.89
81151;BME280;70629;-26.026;27.976;2023-10-31T00:17:43;86615.13;;;16.45;46.12
81151;BME280;70629;-26.026;27.976;2023-10-31T00:18:24;86619.63;;;16.36;44.67
81151;BME280;70629;-26.026;27.976;2023-10-31T00:19:03;86622.63;;;16.68;44.07
81151;BME280;70629;-26.026;27.976;2023-10-31T00:19:43;86625.59;;;17.00;43.56
81151;BME280;70629;-26.026;27.976;2023-10-31T00:20:23;86626.31;;;17.50;42.54
81151;BME280;70629;-26.026;27.976;2023-10-31T00:21:04;86619.63;;;16.82;43.11
81151;BME280;70629;-26.026;27.976;2023-10-31T00:21:44;86629.88;;;16.83;43.89
81151;BME280;70629;-26.026;27.976;2023-10-31T00:22:24;86627.69;;;16.12;45.76
81151;BME280;70629;-26.026;27.976;2023-10-31T00:23:04;86623.91;;;16.21;45.30
81151;BME280;70629;-26.026;27.976;2023-10-31T00:23:45;86634.78;;;15.41;47.13
81151;BME280;70629;-26.026;27.976;2023-10-31T00:24:25;86634.22;;;15.84;46.82
81151;BME280;70629;-26.026;27.976;2023-10-31T00:25:05;86628.25;;;16.31;45.22
81151;BME280;70629;-26.026;27.976;2023-10-31T00:25:45;86633.56;;;16.70;44.83
81151;BME280;70629;-26.026;27.976;2023-10-31T00:26:25;86640.31;;;16.69;44.14
81151;BME280;70629;-26.026;27.976;2023-10-31T00:27:05;86644.88;;;16.41;44.41
81151;BME280;70629;-26.026;27.976;2023-10-31T00:27:45;86636.59;;;16.15;45.09
81151;BME280;70629;-26.026;27.976;2023-10-31T00:28:25;86643.16;;;16.51;44.70
81151;BME280;70629;-26.026;27.976;2023-10-31T00:29:05;86639.19;;;17.00;43.68
81151;BME280;70629;-26.026;27.976;2023-10-31T00:29:44;86644.78;;;16.82;44.11
81151;BME280;70629;-26.026;27.976;2023-10-31T00:30:24;86646.38;;;16.67;43.93
81151;BME280;70629;-26.026;27.976;2023-10-31T00:31:04;86645.34;;;16.79;44.18
81151;BME280;70629;-26.026;27.976;2023-10-31T00:31:47;86635.06;;;16.53;43.96
81151;BME280;70629;-26.026;27.976;2023-10-31T00:32:27;86638.63;;;16.58;45.49
81151;BME280;70629;-26.026;27.976;2023-10-31T00:33:07;86629.28;;;16.41;45.41
81151;BME280;70629;-26.026;27.976;2023-10-31T00:33:47;86634.63;;;16.39;45.29
81151;BME280;70629;-26.026;27.976;2023-10-31T00:34:27;86639.78;;;16.53;44.87
81151;BME280;70629;-26.026;27.976;2023-10-31T00:35:08;86631.28;;;16.41;45.02
81151;BME280;70629;-26.026;27.976;2023-10-31T00:35:48;86644.88;;;16.19;44.40
81151;BME280;70629;-26.026;27.976;2023-10-31T00:36:28;86644.31;;;16.22;45.83
81151;BME280;70629;-26.026;27.976;2023-10-31T00:37:08;86643.53;;;16.63;45.04
81151;BME280;70629;-26.026;27.976;2023-10-31T00:37:47;86644.75;;;16.15;45.78
81151;BME280;70629;-26.026;27.976;2023-10-31T00:38:28;86646.13;;;16.38;44.68
81151;BME280;70629;-26.026;27.976;2023-10-31T00:39:07;86648.53;;;16.71;43.86
81151;BME280;70629;-26.026;27.976;2023-10-31T00:39:48;86655.31;;;16.94;44.25
81151;BME280;70629;-26.026;27.976;2023-10-31T00:40:27;86655.63;;;17.04;43.88
81151;BME280;70629;-26.026;27.976;2023-10-31T00:41:07;86658.88;;;16.77;43.86
81151;BME280;70629;-26.026;27.976;2023-10-31T00:41:47;86661.84;;;16.41;44.95
81151;BME280;70629;-26.026;27.976;2023-10-31T00:42:28;86674.94;;;16.68;45.52
81151;BME280;70629;-26.026;27.976;2023-10-31T00:43:07;86670.88;;;17.15;43.58
81151;BME280;70629;-26.026;27.976;2023-10-31T00:43:47;86675.19;;;17.00;43.87
81151;BME280;70629;-26.026;27.976;2023-10-31T00:44:27;86679.38;;;17.27;43.36
81151;BME280;70629;-26.026;27.976;2023-10-31T00:45:08;86690.38;;;16.86;44.23
81151;BME280;70629;-26.026;27.976;2023-10-31T00:45:48;86690.53;;;17.14;43.71
81151;BME280;70629;-26.026;27.976;2023-10-31T00:46:28;86685.59;;;16.84;44.22
81151;BME280;70629;-26.026;27.976;2023-10-31T00:47:07;86700.94;;;16.97;44.18
81151;BME280;70629;-26.026;27.976;2023-10-31T00:47:47;86702.53;;;16.83;44.23
81151;BME280;70629;-26.026;27.976;2023-10-31T00:48:27;86710.44;;;16.75;44.46
81151;BME280;70629;-26.026;27.976;2023-10-31T00:49:07;86720.88;;;17.06;43.83
81151;BME280;70629;-26.026;27.976;2023-10-31T00:49:47;86725.09;;;17.11;43.57
81151;BME280;70629;-26.026;27.976;2023-10-31T00:50:27;86730.88;;;16.78;44.59
81151;BME280;70629;-26.026;27.976;2023-10-31T00:51:07;86739.53;;;16.94;44.14
81151;BME280;70629;-26.026;27.976;2023-10-31T00:51:47;86745.25;;;16.80;44.52
81151;BME280;70629;-26.026;27.976;2023-10-31T00:52:27;86747.03;;;17.17;43.88
81151;BME280;70629;-26.026;27.976;2023-10-31T00:53:07;86757.09;;;17.13;43.58
81151;BME280;70629;-26.026;27.976;2023-10-31T00:53:47;86747.75;;;17.18;43.76
81151;BME280;70629;-26.026;27.976;2023-10-31T00:54:27;86748.66;;;17.26;43.64
81151;BME280;70629;-26.026;27.976;2023-10-31T00:55:07;86750.06;;;17.05;44.13
81151;BME280;70629;-26.026;27.976;2023-10-31T00:55:47;86751.97;;;17.23;43.39
81151;BME280;70629;-26.026;27.976;2023-10-31T00:56:27;86756.16;;;17.49;43.12
81151;BME280;70629;-26.026;27.976;2023-10-31T00:57:08;86758.38;;;16.66;45.14
81151;BME280;70629;-26.026;27.976;2023-10-31T00:57:47;86764.13;;;16.76;45.50
81151;BME280;70629;-26.026;27.976;2023-10-31T00:58:28;86774.88;;;16.52;46.02
81151;BME280;70629;-26.026;27.976;2023-10-31T00:59:08;86773.84;;;16.61;46.74
81151;BME280;70629;-26.026;27.976;2023-10-31T00:59:47;86780.59;;;16.60;46.47
81151;BME280;70629;-26.026;27.976;2023-10-31T01:00:27;86780.81;;;17.34;45.00
81151;BME280;70629;-26.026;27.976;2023-10-31T01:01:08;86781.38;;;17.06;45.86
81151;BME280;70629;-26.026;27.976;2023-10-31T01:01:48;86792.22;;;17.06;44.99
81151;BME280;70629;-26.026;27.976;2023-10-31T01:02:28;86787.34;;;17.46;44.44
81151;BME280;70629;-26.026;27.976;2023-10-31T01:03:08;86786.72;;;16.83;45.92
81151;BME280;70629;-26.026;27.976;2023-10-31T01:03:48;86776.19;;;16.93;44.87
81151;BME280;70629;-26.026;27.976;2023-10-31T01:04:28;86784.81;;;16.24;47.10
81151;BME280;70629;-26.026;27.976;2023-10-31T01:05:08;86781.19;;;16.79;46.21
81151;BME280;70629;-26.026;27.976;2023-10-31T01:05:48;86773.09;;;16.81;45.84
81151;BME280;70629;-26.026;27.976;2023-10-31T01:06:29;86781.63;;;16.93;45.40
81151;BME280;70629;-26.026;27.976;2023-10-31T01:07:08;86770.38;;;17.02;45.18
81151;BME280;70629;-26.026;27.976;2023-10-31T01:07:51;86769.84;;;16.64;45.83
81151;BME280;70629;-26.026;27.976;2023-10-31T01:08:31;86756.53;;;16.73;45.76
81151;BME280;70629;-26.026;27.976;2023-10-31T01:09:11;86756.59;;;16.96;47.62
81151;BME280;70629;-26.026;27.976;2023-10-31T01:09:52;86742.31;;;17.18;45.71
81151;BME280;70629;-26.026;27.976;2023-10-31T01:10:32;86736.81;;;17.39;45.12
81151;BME280;70629;-26.026;27.976;2023-10-31T01:11:11;86732.34;;;16.59;46.23
81151;BME280;70629;-26.026;27.976;2023-10-31T01:11:52;86735.19;;;16.85;46.11
81151;BME280;70629;-26.026;27.976;2023-10-31T01:12:32;86727.59;;;16.59;46.28
81151;BME280;70629;-26.026;27.976;2023-10-31T01:13:12;86732.59;;;16.67;46.08
81151;BME280;70629;-26.026;27.976;2023-10-31T01:13:52;86733.13;;;16.00;48.04
81151;BME280;70629;-26.026;27.976;2023-10-31T01:14:32;86730.34;;;16.40;47.31
81151;BME280;70629;-26.026;27.976;2023-10-31T01:15:12;86730.31;;;16.81;46.27
81151;BME280;70629;-26.026;27.976;2023-10-31T01:15:52;86737.47;;;16.71;46.43
81151;BME280;70629;-26.026;27.976;2023-10-31T01:16:32;86728.63;;;16.29;46.85
81151;BME280;70629;-26.026;27.976;2023-10-31T01:17:12;86739.16;;;16.60;46.27
81151;BME280;70629;-26.026;27.976;2023-10-31T01:17:52;86729.44;;;16.75;45.92
81151;BME280;70629;-26.026;27.976;2023-10-31T01:18:32;86732.47;;;16.63;46.00
81151;BME280;70629;-26.026;27.976;2023-10-31T01:19:12;86735.31;;;16.89;45.82
81151;BME280;70629;-26.026;27.976;2023-10-31T01:19:52;86728.41;;;16.86;45.58
81151;BME280;70629;-26.026;27.976;2023-10-31T01:20:32;86725.16;;;16.06;48.18
81151;BME280;70629;-26.026;27.976;2023-10-31T01:21:12;86710.59;;;16.37;47.24
81151;BME280;70629;-26.026;27.976;2023-10-31T01:21:52;86709.53;;;16.68;46.99
81151;BME280;70629;-26.026;27.976;2023-10-31T01:22:32;86708.34;;;16.95;45.84
81151;BME280;70629;-26.026;27.976;2023-10-31T01:23:12;86717.63;;;16.88;46.64
81151;BME280;70629;-26.026;27.976;2023-10-31T01:23:52;86717.53;;;16.42;46.43
81151;BME280;70629;-26.026;27.976;2023-10-31T01:24:32;86721.03;;;15.46;48.65
81151;BME280;70629;-26.026;27.976;2023-10-31T01:25:12;86723.22;;;16.09;48.17
81151;BME280;70629;-26.026;27.976;2023-10-31T01:25:52;86734.72;;;15.88;49.20
81151;BME280;70629;-26.026;27.976;2023-10-31T01:26:32;86730.66;;;16.28;47.23
81151;BME280;70629;-26.026;27.976;2023-10-31T01:27:12;86735.06;;;15.78;47.84
81151;BME280;70629;-26.026;27.976;2023-10-31T01:27:52;86734.34;;;15.77;48.09
81151;BME280;70629;-26.026;27.976;2023-10-31T01:28:32;86736.88;;;15.91;48.57
81151;BME280;70629;-26.026;27.976;2023-10-31T01:29:11;86735.59;;;16.55;46.49
81151;BME280;70629;-26.026;27.976;2023-10-31T01:29:52;86742.63;;;16.62;46.41
81151;BME280;70629;-26.026;27.976;2023-10-31T01:30:32;86741.06;;;16.57;46.31
81151;BME280;70629;-26.026;27.976;2023-10-31T01:31:12;86737.06;;;16.58;46.07
81151;BME280;70629;-26.026;27.976;2023-10-31T01:31:52;86747.72;;;16.52;46.82
81151;BME280;70629;-26.026;27.976;2023-10-31T01:32:39;86752.94;;;16.66;46.27
81151;BME280;70629;-26.026;27.976;2023-10-31T01:33:19;86755.19;;;17.17;44.95
81151;BME280;70629;-26.026;27.976;2023-10-31T01:33:59;86752.66;;;17.01;45.51
81151;BME280;70629;-26.026;27.976;2023-10-31T01:34:39;86754.44;;;17.15;45.53
81151;BME280;70629;-26.026;27.976;2023-10-31T01:35:19;86754.34;;;17.34;44.62
81151;BME280;70629;-26.026;27.976;2023-10-31T01:35:59;86755.69;;;17.11;44.54
81151;BME280;70629;-26.026;27.976;2023-10-31T01:36:39;86748.09;;;17.30;44.98
81151;BME280;70629;-26.026;27.976;2023-10-31T01:37:19;86744.47;;;16.99;45.08
81151;BME280;70629;-26.026;27.976;2023-10-31T01:37:59;86756.72;;;17.22;45.28
81151;BME280;70629;-26.026;27.976;2023-10-31T01:38:41;86749.53;;;17.33;44.53
81151;BME280;70629;-26.026;27.976;2023-10-31T01:39:22;86758.38;;;17.33;44.70
81151;BME280;70629;-26.026;27.976;2023-10-31T01:40:03;86756.91;;;17.06;44.32
81151;BME280;70629;-26.026;27.976;2023-10-31T01:40:43;86752.78;;;17.05;45.09
81151;BME280;70629;-26.026;27.976;2023-10-31T01:41:25;86760.97;;;16.84;46.15
81151;BME280;70629;-26.026;27.976;2023-10-31T01:42:05;86765.25;;;16.91;45.25
81151;BME280;70629;-26.026;27.976;2023-10-31T01:42:45;86765.06;;;17.06;45.13
81151;BME280;70629;-26.026;27.976;2023-10-31T01:43:31;86767.03;;;17.04;45.03
81151;BME280;70629;-26.026;27.976;2023-10-31T01:44:12;86765.50;;;16.99;44.97
81151;BME280;70629;-26.026;27.976;2023-10-31T01:44:52;86765.69;;;16.83;44.96
81151;BME280;70629;-26.026;27.976;2023-10-31T01:45:32;86759.81;;;16.91;45.57
81151;BME280;70629;-26.026;27.976;2023-10-31T01:46:11;86754.66;;;16.99;45.48
81151;BME280;70629;-26.026;27.976;2023-10-31T01:46:52;86752.53;;;17.19;44.54
81151;BME280;70629;-26.026;27.976;2023-10-31T01:47:32;86748.41;;;17.64;44.22
81151;BME280;70629;-26.026;27.976;2023-10-31T01:48:12;86737.09;;;17.26;44.58
81151;BME280;70629;-26.026;27.976;2023-10-31T01:48:51;86745.16;;;17.00;44.63
81151;BME280;70629;-26.026;27.976;2023-10-31T01:49:35;86728.06;;;17.19;44.63
81151;BME280;70629;-26.026;27.976;2023-10-31T01:50:16;86723.50;;;17.49;44.34
81151;BME280;70629;-26.026;27.976;2023-10-31T01:50:58;86723.81;;;17.60;43.94
81151;BME280;70629;-26.026;27.976;2023-10-31T01:51:39;86721.91;;;17.40;44.85
81151;BME280;70629;-26.026;27.976;2023-10-31T01:52:21;86715.25;;;17.45;44.55
81151;BME280;70629;-26.026;27.976;2023-10-31T01:53:01;86705.06;;;17.22;44.89
81151;BME280;70629;-26.026;27.976;2023-10-31T01:53:42;86709.34;;;17.29;44.96
81151;BME280;70629;-26.026;27.976;2023-10-31T01:54:21;86703.69;;;17.69;44.58
81151;BME280;70629;-26.026;27.976;2023-10-31T01:55:02;86701.88;;;17.30;45.30
81151;BME280;70629;-26.026;27.976;2023-10-31T01:55:45;86696.03;;;17.63;44.29
81151;BME280;70629;-26.026;27.976;2023-10-31T01:56:25;86691.97;;;16.93;44.88
81151;BME280;70629;-26.026;27.976;2023-10-31T01:57:06;86688.66;;;16.96;45.27
81151;BME280;70629;-26.026;27.976;2023-10-31T01:57:47;86686.06;;;17.24;45.63
81151;BME280;70629;-26.026;27.976;2023-10-31T01:58:34;86682.63;;;17.69;44.43
81151;BME280;70629;-26.026;27.976;2023-10-31T01:59:14;86667.69;;;17.70;43.90
81151;BME280;70629;-26.026;27.976;2023-10-31T01:59:55;86661.13;;;17.55;43.92
81151;BME280;70629;-26.026;27.976;2023-10-31T02:00:36;86665.44;;;17.15;45.40
81151;BME280;70629;-26.026;27.976;2023-10-31T02:01:16;86653.59;;;16.59;45.98
81151;BME280;70629;-26.026;27.976;2023-10-31T02:01:57;86654.03;;;17.44;44.27
81151;BME280;70629;-26.026;27.976;2023-10-31T02:02:38;86650.81;;;17.26;44.54
81151;BME280;70629;-26.026;27.976;2023-10-31T02:03:21;86660.97;;;17.02;45.79
81151;BME280;70629;-26.026;27.976;2023-10-31T02:04:01;86647.78;;;16.92;45.74
81151;BME280;70629;-26.026;27.976;2023-10-31T02:04:42;86639.44;;;16.41;47.05
81151;BME280;70629;-26.026;27.976;2023-10-31T02:05:21;86635.69;;;16.74;45.88
81151;BME280;70629;-26.026;27.976;2023-10-31T02:06:02;86634.41;;;16.09;47.37
81151;BME280;70629;-26.026;27.976;2023-10-31T02:06:44;86642.94;;;16.02;47.13
81151;BME280;70629;-26.026;27.976;2023-10-31T02:07:23;86643.06;;;16.06;48.52
81151;BME280;70629;-26.026;27.976;2023-10-31T02:08:04;86630.53;;;16.16;47.55
81151;BME280;70629;-26.026;27.976;2023-10-31T02:08:48;86632.31;;;16.51;46.32
81151;BME280;70629;-26.026;27.976;2023-10-31T02:09:28;86637.03;;;16.29;47.07
81151;BME280;70629;-26.026;27.976;2023-10-31T02:10:09;86639.41;;;15.97;47.16
81151;BME280;70629;-26.026;27.976;2023-10-31T02:10:49;86631.03;;;16.11;47.74
81151;BME280;70629;-26.026;27.976;2023-10-31T02:11:29;86637.34;;;16.17;47.42
81151;BME280;70629;-26.026;27.976;2023-10-31T02:12:10;86641.06;;;16.50;46.40
81151;BME280;70629;-26.026;27.976;2023-10-31T02:12:50;86652.13;;;17.01;45.17
81151;BME280;70629;-26.026;27.976;2023-10-31T02:13:30;86646.81;;;16.82;46.06
81151;BME280;70629;-26.026;27.976;2023-10-31T02:14:10;86653.00;;;16.62;46.28
81151;BME280;70629;-26.026;27.976;2023-10-31T02:14:50;86656.16;;;16.11;46.81
81151;BME280;70629;-26.026;27.976;2023-10-31T02:15:30;86648.59;;;16.08;47.24
81151;BME280;70629;-26.026;27.976;2023-10-31T02:16:10;86654.09;;;16.32;46.38
81151;BME280;70629;-26.026;27.976;2023-10-31T02:16:51;86656.84;;;15.90;47.61
81151;BME280;70629;-26.026;27.976;2023-10-31T02:17:30;86668.72;;;16.88;45.73
81151;BME280;70629;-26.026;27.976;2023-10-31T02:18:11;86657.31;;;16.48;46.40
81151;BME280;70629;-26.026;27.976;2023-10-31T02:18:51;86658.63;;;15.84;47.87
81151;BME280;70629;-26.026;27.976;2023-10-31T02:19:31;86649.78;;;16.46;46.73
81151;BME280;70629;-26.026;27.976;2023-10-31T02:20:11;86653.19;;;16.25;47.25
81151;BME280;70629;-26.026;27.976;2023-10-31T02:20:51;86656.75;;;16.51;46.23
81151;BME280;70629;-26.026;27.976;2023-10-31T02:21:31;86652.19;;;16.36;46.85
81151;BME280;70629;-26.026;27.976;2023-10-31T02:22:12;86653.72;;;16.63;45.95
81151;BME280;70629;-26.026;27.976;2023-10-31T02:22:52;86644.88;;;16.41;46.81
81151;BME280;70629;-26.026;27.976;2023-10-31T02:23:31;86656.56;;;16.91;45.71
81151;BME280;70629;-26.026;27.976;2023-10-31T02:24:11;86641.91;;;16.33;46.28
81151;BME280;70629;-26.026;27.976;2023-10-31T02:24:52;86651.41;;;16.77;44.94
81151;BME280;70629;-26.026;27.976;2023-10-31T02:25:32;86647.06;;;16.03;46.92
81151;BME280;70629;-26.026;27.976;2023-10-31T02:26:11;86645.69;;;16.23;47.44
81151;BME280;70629;-26.026;27.976;2023-10-31T02:26:51;86651.81;;;16.24;47.23
81151;BME280;70629;-26.026;27.976;2023-10-31T02:27:32;86655.75;;;16.86;45.81
81151;BME280;70629;-26.026;27.976;2023-10-31T02:28:12;86656.13;;;17.22;44.71
81151;BME280;70629;-26.026;27.976;2023-10-31T02:28:51;86647.47;;;17.28;44.19
81151;BME280;70629;-26.026;27.976;2023-10-31T02:29:31;86645.44;;;17.54;43.91
81151;BME280;70629;-26.026;27.976;2023-10-31T02:30:12;86642.09;;;18.07;42.35
81151;BME280;70629;-26.026;27.976;2023-10-31T02:30:52;86634.38;;;17.22;43.72
81151;BME280;70629;-26.026;27.976;2023-10-31T02:31:31;86631.16;;;17.28;44.02
81151;BME280;70629;-26.026;27.976;2023-10-31T02:32:11;86621.50;;;17.23;44.90
81151;BME280;70629;-26.026;27.976;2023-10-31T02:32:52;86619.25;;;17.65;43.33
81151;BME280;70629;-26.026;27.976;2023-10-31T02:33:32;86623.53;;;17.22;43.80
81151;BME280;70629;-26.026;27.976;2023-10-31T02:34:12;86621.91;;;17.13;45.10
81151;BME280;70629;-26.026;27.976;2023-10-31T02:34:53;86629.50;;;17.19;44.89
81151;BME280;70629;-26.026;27.976;2023-10-31T02:35:35;86623.56;;;16.77;45.36
81151;BME280;70629;-26.026;27.976;2023-10-31T02:36:15;86617.72;;;17.34;44.82
81151;BME280;70629;-26.026;27.976;2023-10-31T02:36:55;86622.88;;;17.73;43.39
81151;BME280;70629;-26.026;27.976;2023-10-31T02:37:35;86613.25;;;17.96;42.94
81151;BME280;70629;-26.026;27.976;2023-10-31T02:38:15;86608.84;;;17.07;43.71
81151;BME280;70629;-26.026;27.976;2023-10-31T02:38:55;86605.91;;;16.76;44.70
81151;BME280;70629;-26.026;27.976;2023-10-31T02:39:35;86603.28;;;17.53;42.84
81151;BME280;70629;-26.026;27.976;2023-10-31T02:40:15;86605.09;;;17.44;43.83
81151;BME280;70629;-26.026;27.976;2023-10-31T02:40:55;86601.59;;;16.68;46.04
81151;BME280;70629;-26.026;27.976;2023-10-31T02:41:35;86604.09;;;16.60;45.82
81151;BME280;70629;-26.026;27.976;2023-10-31T02:42:15;86607.13;;;16.94;45.50
81151;BME280;70629;-26.026;27.976;2023-10-31T02:42:54;86616.16;;;17.52;44.22
81151;BME280;70629;-26.026;27.976;2023-10-31T02:43:35;86614.97;;;17.83;42.73
81151;BME280;70629;-26.026;27.976;2023-10-31T02:44:17;86614.44;;;17.63;43.83
81151;BME280;70629;-26.026;27.976;2023-10-31T02:44:58;86623.03;;;17.30;44.58
81151;BME280;70629;-26.026;27.976;2023-10-31T02:45:37;86623.38;;;17.42;44.48
81151;BME280;70629;-26.026;27.976;2023-10-31T02:46:18;86631.38;;;17.12;44.79
81151;BME280;70629;-26.026;27.976;2023-10-31T02:46:58;86632.59;;;17.56;43.98
81151;BME280;70629;-26.026;27.976;2023-10-31T02:47:38;86647.50;;;17.30;44.58
81151;BME280;70629;-26.026;27.976;2023-10-31T02:48:18;86641.16;;;17.21;44.98
81151;BME280;70629;-26.026;27.976;2023-10-31T02:48:59;86652.97;;;17.55;44.13
81151;BME280;70629;-26.026;27.976;2023-10-31T02:49:39;86655.41;;;17.45;43.80
81151;BME280;70629;-26.026;27.976;2023-10-31T02:50:19;86652.31;;;17.31;43.73
81151;BME280;70629;-26.026;27.976;2023-10-31T02:50:59;86664.09;;;17.64;43.80
81151;BME280;70629;-26.026;27.976;2023-10-31T02:51:39;86663.72;;;18.01;43.25
81151;BME280;70629;-26.026;27.976;2023-10-31T02:52:19;86655.75;;;17.58;43.32
81151;BME280;70629;-26.026;27.976;2023-10-31T02:52:59;86659.66;;;17.76;43.09
81151;BME280;70629;-26.026;27.976;2023-10-31T02:53:39;86656.16;;;17.97;43.23
81151;BME280;70629;-26.026;27.976;2023-10-31T02:54:19;86662.25;;;18.24;42.62
81151;BME280;70629;-26.026;27.976;2023-10-31T02:54:59;86665.34;;;17.84;43.26
81151;BME280;70629;-26.026;27.976;2023-10-31T02:55:39;86668.72;;;16.88;45.04
81151;BME280;70629;-26.026;27.976;2023-10-31T02:56:19;86669.88;;;17.28;44.88
81151;BME280;70629;-26.026;27.976;2023-10-31T02:56:59;86674.00;;;17.29;44.49
81151;BME280;70629;-26.026;27.976;2023-10-31T02:57:39;86671.47;;;17.59;43.82
81151;BME280;70629;-26.026;27.976;2023-10-31T02:58:19;86668.50;;;17.75;43.26
81151;BME280;70629;-26.026;27.976;2023-10-31T02:58:59;86671.06;;;18.22;42.92
81151;BME280;70629;-26.026;27.976;2023-10-31T02:59:39;86666.38;;;18.25;41.99
81151;BME280;70629;-26.026;27.976;2023-10-31T03:00:19;86670.94;;;18.18;41.88
81151;BME280;70629;-26.026;27.976;2023-10-31T03:00:59;86662.53;;;18.08;42.87
81151;BME280;70629;-26.026;27.976;2023-10-31T03:01:38;86667.56;;;17.92;42.87
81151;BME280;70629;-26.026;27.976;2023-10-31T03:02:19;86662.03;;;17.88;43.35
81151;BME280;70629;-26.026;27.976;2023-10-31T03:02:59;86663.13;;;18.32;42.13
81151;BME280;70629;-26.026;27.976;2023-10-31T03:03:39;86666.97;;;18.21;42.15
81151;BME280;70629;-26.026;27.976;2023-10-31T03:04:18;86664.09;;;18.15;42.57
81151;BME280;70629;-26.026;27.976;2023-10-31T03:04:59;86651.59;;;18.60;42.33
81151;BME280;70629;-26.026;27.976;2023-10-31T03:05:40;86654.63;;;18.46;42.42
81151;BME280;70629;-26.026;27.976;2023-10-31T03:06:20;86658.59;;;18.69;41.73
81151;BME280;70629;-26.026;27.976;2023-10-31T03:07:01;86648.13;;;18.04;42.55
81151;BME280;70629;-26.026;27.976;2023-10-31T03:07:41;86656.47;;;17.34;42.79
81151;BME280;70629;-26.026;27.976;2023-10-31T03:08:21;86652.25;;;17.79;42.63
81151;BME280;70629;-26.026;27.976;2023-10-31T03:09:01;86645.63;;;18.39;42.07
81151;BME280;70629;-26.026;27.976;2023-10-31T03:09:41;86640.41;;;17.94;42.75
81151;BME280;70629;-26.026;27.976;2023-10-31T03:10:22;86639.41;;;18.37;42.26
81151;BME280;70629;-26.026;27.976;2023-10-31T03:11:01;86639.34;;;17.79;42.45
81151;BME280;70629;-26.026;27.976;2023-10-31T03:11:41;86634.06;;;17.60;43.62
81151;BME280;70629;-26.026;27.976;2023-10-31T03:12:21;86632.34;;;17.98;42.88
81151;BME280;70629;-26.026;27.976;2023-10-31T03:13:02;86626.22;;;17.46;44.60
81151;BME280;70629;-26.026;27.976;2023-10-31T03:13:42;86634.75;;;17.86;43.13
81151;BME280;70629;-26.026;27.976;2023-10-31T03:14:21;86636.06;;;18.11;42.56
81151;BME280;70629;-26.026;27.976;2023-10-31T03:15:02;86630.00;;;18.12;42.19
81151;BME280;70629;-26.026;27.976;2023-10-31T03:15:44;86633.59;;;17.67;44.09
81151;BME280;70629;-26.026;27.976;2023-10-31T03:16:24;86629.00;;;17.74;43.91
81151;BME280;70629;-26.026;27.976;2023-10-31T03:17:04;86630.09;;;17.15;45.00
81151;BME280;70629;-26.026;27.976;2023-10-31T03:17:44;86638.38;;;17.94;43.38
81151;BME280;70629;-26.026;27.976;2023-10-31T03:18:25;86639.66;;;18.17;42.16
81151;BME280;70629;-26.026;27.976;2023-10-31T03:19:05;86633.97;;;18.09;42.84
81151;BME280;70629;-26.026;27.976;2023-10-31T03:19:45;86642.22;;;17.60;44.22
81151;BME280;70629;-26.026;27.976;2023-10-31T03:20:24;86635.81;;;17.25;44.49
81151;BME280;70629;-26.026;27.976;2023-10-31T03:21:05;86633.91;;;17.06;44.98
81151;BME280;70629;-26.026;27.976;2023-10-31T03:21:44;86638.72;;;17.57;44.40
81151;BME280;70629;-26.026;27.976;2023-10-31T03:22:26;86639.66;;;17.66;43.87
81151;BME280;70629;-26.026;27.976;2023-10-31T03:23:06;86636.50;;;17.75;43.38
81151;BME280;70629;-26.026;27.976;2023-10-31T03:23:50;86626.19;;;17.70;44.27
81151;BME280;70629;-26.026;27.976;2023-10-31T03:24:32;86631.16;;;17.53;44.06
81151;BME280;70629;-26.026;27.976;2023-10-31T03:25:11;86630.00;;;17.86;43.42
81151;BME280;70629;-26.026;27.976;2023-10-31T03:25:51;86637.94;;;18.04;42.46
81151;BME280;70629;-26.026;27.976;2023-10-31T03:26:34;86633.97;;;17.58;44.01
81151;BME280;70629;-26.026;27.976;2023-10-31T03:27:13;86636.34;;;17.95;42.85
81151;BME280;70629;-26.026;27.976;2023-10-31T03:27:53;86633.97;;;17.81;43.07
81151;BME280;70629;-26.026;27.976;2023-10-31T03:28:33;86635.25;;;17.78;43.63